createdAt,value
2023-01-15T00:01:24.654Z,4.55
2023-01-15T00:03:51.848Z,4.48
2023-01-15T00:06:18.572Z,4.46
2023-01-15T00:08:45.321Z,4.45
2023-01-15T00:11:12.136Z,4.54
2023-01-15T00:13:38.756Z,4.45
2023-01-15T00:16:05.485Z,4.52
2023-01-15T00:18:32.246Z,4.40
2023-01-15T00:21:00.012Z,4.34
2023-01-15T00:23:45.206Z,4.43
2023-01-15T00:26:37.687Z,4.41
2023-01-15T00:29:04.869Z,4.43
2023-01-15T00:31:32.202Z,4.31
2023-01-15T00:33:58.796Z,4.32
2023-01-15T00:36:25.995Z,4.42
2023-01-15T00:38:52.788Z,4.45
2023-01-15T00:41:19.415Z,4.69
2023-01-15T00:43:46.249Z,4.63
2023-01-15T00:46:12.873Z,4.70
2023-01-15T00:48:39.801Z,4.47
2023-01-15T00:51:06.827Z,4.70
2023-01-15T00:53:33.424Z,4.74
2023-01-15T00:56:00.039Z,4.86
2023-01-15T00:58:26.635Z,4.77
2023-01-15T01:00:57.165Z,4.59
2023-01-15T01:03:24.035Z,4.71
2023-01-15T01:05:50.785Z,4.79
2023-01-15T01:08:17.896Z,4.72
2023-01-15T01:10:44.998Z,4.46
2023-01-15T01:13:11.967Z,4.45
2023-01-15T01:15:39.011Z,4.61
2023-01-15T01:18:05.805Z,4.72
2023-01-15T01:20:32.861Z,4.51
2023-01-15T01:22:59.443Z,4.56
2023-01-15T01:25:26.054Z,4.82
2023-01-15T01:27:52.810Z,4.70
2023-01-15T01:30:19.541Z,4.68
2023-01-15T01:32:46.157Z,4.83
2023-01-15T01:35:12.741Z,4.62
2023-01-15T01:37:39.278Z,4.65
2023-01-15T01:40:06.049Z,4.55
2023-01-15T01:42:32.668Z,4.65
2023-01-15T01:45:29.897Z,4.79
2023-01-15T01:47:59.857Z,4.72
2023-01-15T01:50:28.247Z,4.71
2023-01-15T01:52:57.754Z,4.50
2023-01-15T01:55:26.452Z,4.43
2023-01-15T01:57:54.320Z,4.37
2023-01-15T02:00:22.287Z,4.66
2023-01-15T02:02:49.594Z,4.79
2023-01-15T02:05:21.899Z,4.74
2023-01-15T02:07:48.524Z,4.88
2023-01-15T02:10:15.901Z,4.63
2023-01-15T02:12:44.682Z,4.97
2023-01-15T02:15:16.355Z,4.99
2023-01-15T02:17:52.519Z,4.99
2023-01-15T02:20:28.959Z,4.93
2023-01-15T02:23:02.507Z,5.04
2023-01-15T02:25:37.497Z,5.16
2023-01-15T02:28:16.112Z,5.00
2023-01-15T02:30:46.034Z,4.91
2023-01-15T02:33:15.551Z,4.94
2023-01-15T02:35:51.231Z,5.04
2023-01-15T02:38:22.563Z,5.21
2023-01-15T02:40:51.284Z,4.86
2023-01-15T02:43:19.322Z,4.84
2023-01-15T02:45:48.125Z,4.80
2023-01-15T02:48:16.665Z,5.05
2023-01-15T02:50:50.622Z,5.19
2023-01-15T02:53:28.661Z,4.98
2023-01-15T02:55:57.886Z,5.01
2023-01-15T02:58:28.459Z,5.06
2023-01-15T03:00:56.833Z,5.05
2023-01-15T03:03:23.462Z,4.89
2023-01-15T03:06:22.610Z,4.88
2023-01-15T03:08:50.762Z,4.93
2023-01-15T03:11:21.505Z,4.99
2023-01-15T03:13:52.880Z,4.98
2023-01-15T03:16:34.700Z,4.83
2023-01-15T03:19:13.629Z,4.93
2023-01-15T03:21:46.516Z,4.95
2023-01-15T03:24:15.058Z,4.92
2023-01-15T03:26:41.663Z,4.77
2023-01-15T03:29:09.181Z,4.83
2023-01-15T03:31:36.652Z,4.73
2023-01-15T03:34:03.343Z,4.92
2023-01-15T03:36:30.864Z,4.94
2023-01-15T03:38:58.479Z,4.90
2023-01-15T03:41:28.129Z,4.85
2023-01-15T03:44:00.875Z,5.10
2023-01-15T03:46:53.849Z,4.95
2023-01-15T03:49:25.091Z,5.10
2023-01-15T03:52:03.976Z,4.98
2023-01-15T03:54:39.168Z,5.12
2023-01-15T03:57:13.947Z,5.20
2023-01-15T03:59:44.889Z,5.12
2023-01-15T04:02:12.868Z,5.08
2023-01-15T04:04:40.730Z,5.22
2023-01-15T04:07:07.621Z,4.97
2023-01-15T04:09:37.441Z,5.11
2023-01-15T04:12:04.121Z,5.13
2023-01-15T04:14:31.132Z,5.10
2023-01-15T04:16:57.943Z,5.07
2023-01-15T04:19:24.750Z,5.07
2023-01-15T04:21:51.409Z,5.30
2023-01-15T04:24:17.977Z,5.21
2023-01-15T04:26:44.558Z,5.07
2023-01-15T04:29:11.165Z,5.14
2023-01-15T04:31:37.767Z,5.30
2023-01-15T04:34:04.407Z,5.32
2023-01-15T04:36:31.185Z,5.12
2023-01-15T04:39:00.006Z,5.10
2023-01-15T04:41:45.435Z,5.22
2023-01-15T04:44:12.196Z,5.35
2023-01-15T04:46:40.003Z,5.21
2023-01-15T04:49:08.573Z,5.12
2023-01-15T04:51:35.523Z,4.94
2023-01-15T04:54:03.098Z,5.31
2023-01-15T04:56:29.792Z,5.06
2023-01-15T04:58:56.476Z,5.11
2023-01-15T05:01:23.322Z,5.11
2023-01-15T05:03:50.337Z,5.07
2023-01-15T05:06:18.762Z,4.86
2023-01-15T05:08:45.711Z,5.14
2023-01-15T05:11:13.333Z,5.09
2023-01-15T05:13:40.088Z,4.94
2023-01-15T05:16:10.168Z,5.00
2023-01-15T05:18:37.225Z,5.02
2023-01-15T05:21:04.749Z,5.04
2023-01-15T05:23:40.234Z,5.18
2023-01-15T05:26:06.828Z,4.94
2023-01-15T05:28:33.445Z,4.92
2023-01-15T05:31:05.465Z,4.98
2023-01-15T05:33:32.057Z,4.86
2023-01-15T05:36:01.998Z,4.90
2023-01-15T05:38:28.824Z,4.93
2023-01-15T05:40:56.643Z,4.95
2023-01-15T05:43:23.350Z,4.95
2023-01-15T05:45:50.126Z,4.97
2023-01-15T05:48:17.509Z,4.84
2023-01-15T05:50:44.257Z,5.10
2023-01-15T05:53:10.924Z,5.02
2023-01-15T05:55:37.635Z,5.00
2023-01-15T05:58:06.007Z,5.12
2023-01-15T06:00:32.576Z,5.05
2023-01-15T06:02:59.314Z,5.08
2023-01-15T06:05:26.092Z,4.95
2023-01-15T06:07:53.135Z,4.95
2023-01-15T06:10:19.718Z,4.72
2023-01-15T06:12:47.381Z,4.78
2023-01-15T06:15:14.243Z,4.71
2023-01-15T06:17:40.984Z,5.09
2023-01-15T06:20:07.939Z,4.83
2023-01-15T06:22:34.701Z,4.97
2023-01-15T06:25:01.792Z,4.84
2023-01-15T06:27:28.535Z,4.92
2023-01-15T06:29:55.190Z,5.07
2023-01-15T06:32:22.729Z,4.74
2023-01-15T06:34:50.091Z,4.74
2023-01-15T06:37:16.696Z,4.87
2023-01-15T06:39:43.329Z,4.83
2023-01-15T06:42:28.546Z,5.02
2023-01-15T06:45:13.832Z,4.94
2023-01-15T06:47:40.371Z,4.91
2023-01-15T06:50:10.247Z,4.83
2023-01-15T06:52:37.001Z,4.95
2023-01-15T06:55:03.811Z,4.91
2023-01-15T06:57:39.359Z,4.84
2023-01-15T07:00:07.101Z,4.81
2023-01-15T07:02:34.122Z,4.89
2023-01-15T07:05:09.238Z,4.83
2023-01-15T07:07:39.451Z,4.91
2023-01-15T07:10:06.411Z,4.79
2023-01-15T07:12:36.020Z,4.72
2023-01-15T07:15:02.645Z,4.67
2023-01-15T07:17:29.583Z,4.71
2023-01-15T07:19:58.363Z,4.82
2023-01-15T07:22:25.013Z,5.01
2023-01-15T07:24:51.992Z,4.94
2023-01-15T07:27:18.682Z,4.81
2023-01-15T07:29:45.251Z,4.71
2023-01-15T07:32:12.349Z,4.64
2023-01-15T07:34:38.939Z,4.66
2023-01-15T07:37:05.686Z,4.65
2023-01-15T07:39:32.257Z,4.89
2023-01-15T07:42:18.138Z,4.69
2023-01-15T07:45:03.357Z,4.52
2023-01-15T07:47:48.533Z,4.51
2023-01-15T07:50:21.974Z,4.53
2023-01-15T07:52:48.798Z,4.71
2023-01-15T07:55:15.508Z,4.44
2023-01-15T07:57:42.699Z,4.54
2023-01-15T08:00:15.024Z,4.63
2023-01-15T08:02:42.077Z,4.52
2023-01-15T08:05:09.799Z,4.52
2023-01-15T08:07:37.370Z,4.34
2023-01-15T08:10:07.419Z,4.37
2023-01-15T08:12:52.863Z,4.56
2023-01-15T08:15:22.733Z,4.69
2023-01-15T08:17:50.802Z,4.69
2023-01-15T08:20:18.938Z,4.76
2023-01-15T08:22:46.216Z,4.62
2023-01-15T08:25:16.463Z,4.73
2023-01-15T08:27:43.790Z,4.80
2023-01-15T08:30:21.506Z,4.47
2023-01-15T08:32:51.303Z,4.49
2023-01-15T08:35:17.960Z,4.42
2023-01-15T08:37:44.974Z,4.61
2023-01-15T08:40:12.148Z,4.69
2023-01-15T08:42:38.957Z,4.57
2023-01-15T08:45:08.926Z,4.46
2023-01-15T08:47:38.764Z,4.65
2023-01-15T08:50:07.713Z,4.61
2023-01-15T08:52:34.494Z,4.99
2023-01-15T08:55:01.871Z,4.74
2023-01-15T08:57:28.623Z,4.78
2023-01-15T08:59:55.271Z,4.93
2023-01-15T09:02:22.643Z,4.65
2023-01-15T09:04:49.429Z,4.84
2023-01-15T09:07:17.381Z,4.97
2023-01-15T09:09:44.063Z,4.95
2023-01-15T09:12:10.798Z,4.93
2023-01-15T09:14:58.761Z,5.01
2023-01-15T09:17:24.599Z,5.05
2023-01-15T09:19:52.241Z,4.72
2023-01-15T09:22:19.391Z,4.73
2023-01-15T09:24:46.678Z,4.80
2023-01-15T09:27:13.576Z,4.55
2023-01-15T09:29:40.205Z,4.60
2023-01-15T09:32:08.712Z,4.56
2023-01-15T09:34:37.420Z,4.72
2023-01-15T09:37:04.303Z,4.82
2023-01-15T09:39:33.916Z,4.71
2023-01-15T09:42:19.160Z,4.95
2023-01-15T09:45:10.027Z,4.87
2023-01-15T09:47:43.378Z,4.70
2023-01-15T09:50:18.820Z,4.92
2023-01-15T09:52:52.258Z,5.06
2023-01-15T09:55:24.920Z,5.06
2023-01-15T09:57:54.529Z,5.10
2023-01-15T10:00:24.442Z,5.04
2023-01-15T10:03:00.399Z,5.05
2023-01-15T10:05:27.010Z,5.13
2023-01-15T10:07:53.716Z,4.95
2023-01-15T10:10:26.337Z,4.96
2023-01-15T10:12:58.079Z,4.90
2023-01-15T10:15:27.884Z,4.98
2023-01-15T10:17:58.332Z,5.11
2023-01-15T10:20:38.300Z,4.96
2023-01-15T10:23:24.853Z,5.07
2023-01-15T10:25:56.227Z,5.15
2023-01-15T10:28:32.083Z,5.26
2023-01-15T10:31:05.125Z,5.32
2023-01-15T10:33:55.278Z,4.99
2023-01-15T10:36:24.319Z,5.27
2023-01-15T10:38:57.407Z,5.32
2023-01-15T10:41:24.116Z,5.24
2023-01-15T10:44:09.228Z,5.28
2023-01-15T10:46:38.371Z,5.23
2023-01-15T10:49:13.859Z,5.35
2023-01-15T10:51:45.506Z,5.13
2023-01-15T10:54:14.814Z,5.31
2023-01-15T10:56:43.266Z,5.38
2023-01-15T10:59:12.813Z,5.31
2023-01-15T11:01:40.068Z,5.13
2023-01-15T11:04:09.132Z,5.24
2023-01-15T11:06:35.916Z,5.12
2023-01-15T11:09:11.524Z,5.21
2023-01-15T11:11:59.713Z,5.18
2023-01-15T11:15:34.024Z,5.06
2023-01-15T11:18:21.070Z,5.05
2023-01-15T11:20:49.460Z,5.16
2023-01-15T11:23:17.004Z,5.05
2023-01-15T11:25:49.605Z,5.16
2023-01-15T11:28:17.270Z,5.20
2023-01-15T11:30:53.103Z,5.17
2023-01-15T11:33:28.149Z,5.31
2023-01-15T11:35:58.822Z,5.09
2023-01-15T11:38:26.607Z,5.01
2023-01-15T11:40:59.656Z,5.15
2023-01-15T11:43:46.398Z,5.15
2023-01-15T11:46:44.461Z,5.21
2023-01-15T11:49:30.150Z,5.12
2023-01-15T11:51:58.533Z,5.00
2023-01-15T11:54:26.411Z,5.19
2023-01-15T11:56:53.902Z,5.17
2023-01-15T11:59:21.026Z,5.14
2023-01-15T12:01:58.007Z,5.50
2023-01-15T12:04:27.426Z,5.42
2023-01-15T12:06:54.341Z,5.44
2023-01-15T12:09:23.880Z,5.49
2023-01-15T12:11:56.543Z,5.28
2023-01-15T12:14:29.238Z,5.29
2023-01-15T12:16:55.790Z,5.45
2023-01-15T12:19:34.611Z,5.67
2023-01-15T12:22:13.207Z,5.64
2023-01-15T12:24:39.739Z,5.67
2023-01-15T12:27:07.319Z,5.81
2023-01-15T12:29:46.402Z,5.73
2023-01-15T12:32:31.340Z,5.82
2023-01-15T12:35:00.387Z,5.87
2023-01-15T12:37:34.677Z,5.90
2023-01-15T12:40:18.078Z,5.73
2023-01-15T12:43:04.708Z,5.92
2023-01-15T12:48:41.294Z,5.59
2023-01-15T12:51:12.093Z,5.88
2023-01-15T12:53:46.692Z,5.90
2023-01-15T12:56:16.341Z,5.64
2023-01-15T12:58:46.428Z,5.55
2023-01-15T13:01:31.845Z,5.68
2023-01-15T13:04:17.790Z,5.40
2023-01-15T13:06:51.897Z,5.29
2023-01-15T13:09:28.743Z,5.54
2023-01-15T13:11:55.430Z,5.32
2023-01-15T13:14:23.045Z,5.95
2023-01-15T13:17:06.994Z,5.48
2023-01-15T13:19:54.326Z,5.61
2023-01-15T13:22:25.214Z,5.66
2023-01-15T13:25:10.579Z,5.72
2023-01-15T13:27:45.261Z,5.38
2023-01-15T13:30:11.826Z,5.70
2023-01-15T13:32:52.882Z,5.59
2023-01-15T13:35:25.587Z,5.55
2023-01-15T13:37:54.907Z,5.22
2023-01-15T13:40:29.302Z,5.38
2023-01-15T13:42:56.582Z,5.52
2023-01-15T13:45:43.334Z,5.40
2023-01-15T13:48:15.673Z,5.06
2023-01-15T13:50:51.136Z,5.22
2023-01-15T13:53:25.360Z,5.34
2023-01-15T13:55:56.436Z,5.25
2023-01-15T13:58:25.976Z,5.37
2023-01-15T14:01:03.571Z,5.48
2023-01-15T14:03:31.606Z,5.03
2023-01-15T14:06:02.808Z,4.97
2023-01-15T14:08:37.148Z,5.03
2023-01-15T14:11:04.030Z,5.09
2023-01-15T14:13:36.931Z,5.06
2023-01-15T14:16:03.517Z,4.85
2023-01-15T14:18:30.091Z,4.95
2023-01-15T14:21:11.369Z,4.89
2023-01-15T14:23:44.032Z,5.04
2023-01-15T14:26:10.613Z,4.98
2023-01-15T14:28:50.212Z,5.00
2023-01-15T14:31:16.765Z,4.70
2023-01-15T14:33:52.492Z,4.47
2023-01-15T14:36:20.732Z,4.55
2023-01-15T14:38:50.293Z,4.56
2023-01-15T14:41:17.247Z,4.71
2023-01-15T14:43:48.926Z,4.69
2023-01-15T14:46:22.609Z,4.64
2023-01-15T14:48:49.204Z,4.67
2023-01-15T14:51:18.552Z,4.60
2023-01-15T14:53:48.438Z,4.49
2023-01-15T14:56:23.868Z,4.30
2023-01-15T14:58:53.593Z,4.51
2023-01-15T15:01:38.691Z,4.63
2023-01-15T15:04:11.527Z,4.78
2023-01-15T15:06:44.965Z,4.59
2023-01-15T15:09:13.896Z,4.73
2023-01-15T15:12:08.137Z,4.67
2023-01-15T15:14:38.158Z,4.73
2023-01-15T15:17:06.598Z,4.49
2023-01-15T15:44:08.044Z,3.27
2023-01-15T15:46:55.893Z,3.50
2023-01-15T15:49:22.677Z,3.39
2023-01-15T15:51:53.950Z,3.41
2023-01-15T15:54:30.912Z,2.89
2023-01-15T15:56:59.483Z,3.21
2023-01-15T15:59:45.246Z,3.44
2023-01-15T16:02:31.525Z,3.17
2023-01-15T16:05:02.956Z,3.06
2023-01-15T16:07:36.575Z,3.15
2023-01-15T16:10:25.832Z,2.95
2023-01-15T16:12:55.172Z,2.81
2023-01-15T16:15:30.787Z,3.21
2023-01-15T16:17:58.728Z,3.01
2023-01-15T16:20:26.058Z,2.76
2023-01-15T16:23:04.741Z,3.15
2023-01-15T16:25:42.008Z,2.65
2023-01-15T16:28:25.216Z,2.92
2023-01-15T16:30:59.613Z,3.15
2023-01-15T16:33:27.227Z,2.57
2023-01-15T16:36:10.429Z,3.19
2023-01-15T16:38:41.365Z,2.72
2023-01-15T17:26:04.489Z,2.83
2023-01-15T17:28:31.275Z,3.02
2023-01-15T17:31:00.763Z,3.06
2023-01-15T17:33:27.780Z,2.76
2023-01-15T17:35:56.627Z,2.94
2023-01-15T17:38:23.468Z,2.92
2023-01-15T17:40:51.613Z,2.86
2023-01-15T17:43:18.484Z,2.81
2023-01-15T17:45:45.281Z,2.79
2023-01-15T17:48:13.588Z,3.23
2023-01-15T17:50:41.291Z,3.07
2023-01-15T17:53:08.456Z,2.83
2023-01-15T17:55:53.815Z,3.02
2023-01-15T17:58:39.382Z,2.77
2023-01-15T18:01:33.976Z,2.62
2023-01-15T18:04:19.407Z,2.72
2023-01-15T18:06:51.843Z,2.66
2023-01-15T18:09:20.429Z,2.83
2023-01-15T18:11:47.276Z,2.63
2023-01-15T18:14:14.391Z,2.50
2023-01-15T18:16:41.386Z,2.51
2023-01-15T18:19:08.324Z,2.47
2023-01-15T18:21:38.771Z,2.66
2023-01-15T18:24:07.407Z,2.48
2023-01-15T18:26:40.158Z,2.59
2023-01-15T18:29:08.610Z,2.77
2023-01-15T18:31:37.834Z,2.46
2023-01-15T18:34:05.646Z,2.63
2023-01-15T18:36:32.764Z,2.58
2023-01-15T18:39:06.406Z,2.49
2023-01-15T18:41:36.374Z,2.41
2023-01-15T18:44:24.846Z,2.55
2023-01-15T18:46:54.845Z,2.51
2023-01-15T18:49:22.187Z,2.68
2023-01-15T18:52:08.854Z,2.39
2023-01-15T18:54:37.000Z,2.44
2023-01-15T18:57:04.530Z,2.67
2023-01-15T18:59:31.891Z,2.21
2023-01-15T19:01:59.263Z,2.61
2023-01-15T19:04:26.559Z,2.39
2023-01-15T19:06:54.016Z,2.54
2023-01-15T19:09:26.929Z,2.49
2023-01-15T19:11:54.771Z,2.57
2023-01-15T19:14:40.479Z,2.45
2023-01-15T19:17:35.498Z,2.74
2023-01-15T19:20:02.741Z,2.47
2023-01-15T19:22:47.880Z,2.79
2023-01-15T19:25:14.847Z,2.69
2023-01-15T19:27:41.676Z,2.27
2023-01-15T19:30:10.057Z,2.59
2023-01-15T19:32:36.951Z,2.09
2023-01-15T19:35:03.932Z,2.30
2023-01-15T19:37:32.165Z,2.45
2023-01-15T19:39:59.122Z,2.13
2023-01-15T19:42:44.400Z,2.41
2023-01-15T19:45:30.407Z,1.88
2023-01-15T19:48:17.026Z,2.15
2023-01-15T19:50:45.607Z,2.31
2023-01-15T19:53:12.939Z,2.09
2023-01-15T19:55:44.684Z,1.86
2023-01-15T19:58:13.956Z,1.93
2023-01-15T20:00:42.704Z,2.05
2023-01-15T20:03:12.408Z,2.04
2023-01-15T20:05:40.937Z,2.13
2023-01-15T20:08:12.563Z,2.12
2023-01-15T20:10:42.345Z,2.08
2023-01-15T20:13:41.808Z,2.07
2023-01-15T20:16:14.645Z,1.99
2023-01-15T20:18:42.727Z,1.74
2023-01-15T20:21:14.664Z,1.78
2023-01-15T20:23:42.988Z,1.84
2023-01-15T20:26:12.440Z,1.51
2023-01-15T20:28:42.024Z,1.47
2023-01-15T20:31:19.320Z,1.66
2023-01-15T20:33:47.193Z,1.81
2023-01-15T20:36:14.271Z,1.44
2023-01-15T20:38:41.121Z,1.56
2023-01-15T20:41:27.540Z,1.77
2023-01-15T20:44:13.244Z,1.56
2023-01-15T20:46:40.523Z,1.58
2023-01-15T20:49:25.467Z,1.38
2023-01-15T20:51:52.940Z,1.38
2023-01-15T20:54:24.982Z,1.73
2023-01-15T20:56:51.811Z,1.73
2023-01-15T20:59:18.609Z,1.44
2023-01-15T21:01:45.495Z,1.26
2023-01-15T21:04:13.870Z,1.26
2023-01-15T21:06:40.954Z,1.31
2023-01-15T21:09:08.037Z,1.17
2023-01-15T21:11:34.872Z,1.51
2023-01-15T21:14:01.764Z,1.49
2023-01-15T21:16:28.691Z,1.43
2023-01-15T21:18:55.549Z,1.50
2023-01-15T21:21:22.791Z,1.33
2023-01-15T21:23:49.564Z,1.29
2023-01-15T21:26:16.851Z,1.62
2023-01-15T21:28:44.855Z,1.74
2023-01-15T21:31:13.258Z,1.55
2023-01-15T21:33:40.364Z,1.46
2023-01-15T21:36:08.423Z,1.28
2023-01-15T21:38:35.370Z,1.41
2023-01-15T21:41:09.622Z,1.70
2023-01-15T21:43:55.428Z,1.54
2023-01-15T21:46:23.570Z,1.52
2023-01-15T21:48:51.928Z,1.39
2023-01-15T21:51:18.759Z,1.08
2023-01-15T21:53:45.548Z,0.92
2023-01-15T21:56:12.565Z,1.19
2023-01-15T21:58:39.839Z,1.39
2023-01-15T22:01:11.610Z,1.41
2023-01-15T22:03:38.897Z,1.02
2023-01-15T22:06:07.700Z,1.35
2023-01-15T22:08:34.845Z,1.01
2023-01-15T22:11:05.877Z,1.29
2023-01-15T22:13:33.784Z,1.28
2023-01-15T22:16:02.935Z,1.25
2023-01-15T22:18:30.866Z,0.95
2023-01-15T22:21:05.361Z,1.16
2023-01-15T22:23:32.935Z,0.95
2023-01-15T22:26:00.035Z,1.17
2023-01-15T22:28:26.889Z,1.21
2023-01-15T22:30:53.659Z,0.99
2023-01-15T22:33:20.400Z,1.33
2023-01-15T22:35:59.348Z,1.42
2023-01-15T22:38:26.699Z,1.26
2023-01-15T22:40:53.482Z,1.15
2023-01-15T22:43:20.365Z,1.36
2023-01-15T22:45:47.252Z,1.33
2023-01-15T22:48:14.076Z,0.81
2023-01-15T22:50:40.777Z,1.10
2023-01-15T22:53:07.906Z,1.13
2023-01-15T22:55:34.727Z,0.88
2023-01-15T22:58:01.378Z,1.10
2023-01-15T23:00:28.072Z,0.80
2023-01-15T23:02:54.785Z,0.94
2023-01-15T23:05:23.444Z,0.97
2023-01-15T23:07:50.873Z,0.86
2023-01-15T23:10:17.639Z,0.88
2023-01-15T23:12:44.388Z,0.76
2023-01-15T23:15:13.525Z,0.70
2023-01-15T23:17:40.777Z,0.77
2023-01-15T23:20:11.859Z,0.88
2023-01-15T23:22:39.608Z,0.74
2023-01-15T23:25:08.959Z,0.56
2023-01-15T23:27:36.444Z,0.40
2023-01-15T23:30:04.091Z,0.68
2023-01-15T23:32:30.836Z,0.23
2023-01-15T23:34:57.605Z,0.64
2023-01-15T23:37:24.421Z,0.52
2023-01-15T23:39:51.232Z,0.36
2023-01-15T23:42:36.527Z,0.55
2023-01-15T23:45:21.972Z,0.71
2023-01-15T23:47:48.706Z,0.25
2023-01-15T23:50:15.825Z,0.79
2023-01-15T23:52:42.557Z,0.71
2023-01-15T23:55:09.804Z,0.55
2023-01-15T23:57:36.506Z,0.30
